Flight Track Log - Related Links

Times and Time Zones

All times are in EDT time to prevent confusion due to time zone crossing. See the UAL1177 flight status page for this flight to view local times or setup timezone preferences in your user account.

Time Position Orientation Groundspeed Altitude Reporting Facility
EDT Latitude Longitude Course Direction KTS MPH feet Rate Location/Type
Sat 04:38:00 PM 37.6232 -122.3976 120° Southeast  Level FlightAware Approximate
Sat 04:38:02 PM 37.7000 -122.2667 67° East 245 282 5,100  Level Northern Cal TRACON
Sat 04:39:00 PM 37.6528 -122.2388 72° East  Level FlightAware Approximate
Sat 04:39:02 PM 37.7500 -122.2000 47° Northeast 274 315 8,500  Level Northern Cal TRACON
Sat 04:40:00 PM 37.7086 -122.0865 70° East  Level FlightAware Approximate
Sat 04:40:13 PM 37.7886 -122.0825 67° East 303 349 12,000  Level Oakland Center
Sat 04:41:00 PM 37.7571 -121.9287 67° East  Level FlightAware Approximate
Sat 04:41:14 PM 37.8200 -121.9664 71° East 342 394 14,700  Level Oakland Center
Sat 04:42:00 PM 37.8027 -121.7765 63° Northeast  Level FlightAware Approximate
Sat 04:42:16 PM 37.8539 -121.8425 71° East 371 427 17,300  Level Oakland Center
Sat 04:43:00 PM 37.8620 -121.6306 67° East  Level FlightAware Approximate
Sat 04:43:17 PM 37.8883 -121.7097 72° East 393 452 19,800  Level Oakland Center
Sat 04:44:18 PM 37.9258 -121.5722 71° East 411 473 22,100 2,164 Climbing Oakland Center
Sat 04:45:19 PM 37.9625 -121.4342 71° East 430 495 24,200 2,115 Climbing Oakland Center
Sat 04:46:20 PM 38.0097 -121.2558 71° East 447 514 26,400 1,854 Climbing Oakland Center
Sat 04:47:22 PM 38.0392 -121.0967 77° East 467 537 28,000 1,512 Climbing Oakland Center
Sat 04:48:23 PM 38.0628 -120.9303 80° East 479 551 29,500 1,525 Climbing Oakland Center
Sat 04:49:24 PM 38.0875 -120.7597 80° East 492 566 31,100 1,623 Climbing Oakland Center
Sat 04:50:25 PM 38.1103 -120.5894 80° East 493 567 32,800 1,525 Climbing Oakland Center
Sat 04:51:26 PM 38.1344 -120.4178 80° East 495 570 34,200 1,366 Climbing Oakland Center
Sat 04:52:28 PM 38.1586 -120.2464 80° East 495 570 35,600 1,366 Climbing Oakland Center
Sat 04:53:29 PM 38.1806 -120.0775 81° East 488 562 37,000 689 Climbing Oakland Center
Sat 04:54:30 PM 38.2042 -119.9086 80° East 487 560 37,000  Level Oakland Center
Sat 04:55:31 PM 38.2308 -119.7056 80° East 487 560 37,000  Level Oakland Center
Sat 04:56:32 PM 38.2539 -119.5378 80° East 482 555 37,000  Level Oakland Center
Sat 04:57:34 PM 38.2725 -119.3781 82° East 482 555 37,000  Level Oakland Center
Sat 04:58:35 PM 38.2944 -119.2092 81° East 485 558 37,000  Level Oakland Center
Sat 04:59:36 PM 38.3150 -119.0400 81° East 487 560 37,000  Level Oakland Center
Sat 05:00:37 PM 38.3372 -118.8700 80° East 489 563 37,000  Level Oakland Center
Sat 05:01:38 PM 38.3578 -118.6994 81° East 489 563 37,000  Level Oakland Center
Sat 05:02:40 PM 38.3825 -118.4928 81° East 493 567 37,000  Level Oakland Center
Sat 05:03:41 PM 38.4036 -118.3214 81° East 493 567 37,000  Level Oakland Center
Sat 05:04:42 PM 38.4247 -118.1464 81° East 498 573 37,000  Level Oakland Center
Sat 05:05:43 PM 38.4447 -117.9694 82° East 498 573 37,000  Level Oakland Center
Sat 05:06:44 PM 38.4642 -117.7936 82° East 499 574 37,000  Level Oakland Center
Sat 05:07:46 PM 38.4842 -117.6153 82° East 503 579 37,000  Level Oakland Center
Sat 05:08:47 PM 38.5036 -117.4375 82° East 502 578 37,000  Level Oakland Center
Sat 05:09:29 PM 38.5153 -117.3292 82° East 502 578 37,000  Level Salt Lake Center
Sat 05:10:30 PM 38.5169 -117.1081 89° East 516 594 37,000  Level Salt Lake Center
Sat 05:10:49 PM 38.5161 -117.0722 92° East 518 596 37,000  Level Oakland Center
Sat 05:11:50 PM 38.5117 -116.8878 92° East 516 594 37,000  Level Oakland Center
Sat 05:12:51 PM 38.5083 -116.7028 91° East 517 595 37,000  Level Oakland Center
Sat 05:13:35 PM 38.5033 -116.5558 92° East 515 593 37,000  Level Salt Lake Center
Sat 05:14:36 PM 38.4983 -116.3719 92° East 518 596 37,000  Level Salt Lake Center
Sat 05:14:53 PM 38.4981 -116.3358 91° East 517 595 37,000  Level Oakland Center
Sat 05:15:55 PM 38.4919 -116.1531 92° East 515 593 37,000  Level Oakland Center
Sat 05:16:39 PM 38.4878 -116.0069 92° East 514 592 37,000  Level Salt Lake Center
Sat 05:17:40 PM 38.4828 -115.8250 92° East 514 592 37,000  Level Salt Lake Center
Sat 05:18:42 PM 38.4778 -115.6411 92° East 517 595 37,000  Level Salt Lake Center
Sat 05:19:43 PM 38.4706 -115.4578 93° East 518 596 37,000  Level Salt Lake Center
Sat 05:20:45 PM 38.4631 -115.2517 93° East 516 594 37,000  Level Salt Lake Center
Sat 05:21:46 PM 38.4569 -115.0681 92° East 518 596 37,000  Level Salt Lake Center
Sat 05:22:48 PM 38.4492 -114.8858 93° East 516 594 37,000  Level Salt Lake Center
Sat 05:23:49 PM 38.4417 -114.7047 93° East 513 590 37,000  Level Salt Lake Center
Sat 05:24:50 PM 38.4347 -114.5250 93° East 509 586 37,000  Level Salt Lake Center
Sat 05:25:52 PM 38.4267 -114.3442 93° East 510 587 37,000  Level Salt Lake Center
Sat 05:26:53 PM 38.4206 -114.1647 92° East 508 585 37,000  Level Salt Lake Center
Sat 05:27:55 PM 38.4097 -113.9503 94° East 506 582 37,000  Level Salt Lake Center
Sat 05:28:56 PM 38.4008 -113.7717 94° East 506 582 37,000  Level Salt Lake Center
Sat 05:29:58 PM 38.3922 -113.5944 93° East 503 579 37,000  Level Salt Lake Center
Sat 05:30:59 PM 38.3828 -113.4153 94° East 504 580 37,000  Level Salt Lake Center
Sat 05:32:01 PM 38.3725 -113.2353 94° East 508 585 37,000  Level Salt Lake Center
Sat 05:33:02 PM 38.3622 -113.0550 94° East 509 586 37,000  Level Salt Lake Center
Sat 05:34:04 PM 38.3842 -112.8819 81° East 493 567 37,000  Level Salt Lake Center
Sat 05:35:05 PM 38.4158 -112.7136 76° East 489 563 37,000  Level Salt Lake Center
Sat 05:36:06 PM 38.4475 -112.5436 77° East 490 564 37,000  Level Salt Lake Center
Sat 05:37:08 PM 38.4778 -112.3747 77° East 489 563 37,000  Level Salt Lake Center
Sat 05:38:09 PM 38.5150 -112.1711 77° East 490 564 37,000  Level Salt Lake Center
Sat 05:39:11 PM 38.5450 -112.0008 77° East 491 565 37,000  Level Salt Lake Center
Sat 05:40:12 PM 38.5742 -111.8300 78° East 493 567 37,000  Level Salt Lake Center
Sat 05:41:13 PM 38.6044 -111.6622 77° East 487 560 37,000  Level Salt Lake Center
Sat 05:42:15 PM 38.6322 -111.4942 78° East 485 558 37,000  Level Salt Lake Center
Sat 05:43:16 PM 38.6619 -111.3272 77° East 483 556 37,000  Level Salt Lake Center
Sat 05:44:17 PM 38.6900 -111.1592 78° East 483 556 37,000  Level Salt Lake Center
Sat 05:45:19 PM 38.7175 -110.9925 78° East 480 552 37,000  Level Salt Lake Center
Sat 05:46:20 PM 38.7494 -110.8022 78° East 481 554 37,000  Level Salt Lake Center
Sat 05:47:21 PM 38.7750 -110.6394 79° East 486 559 37,000  Level Salt Lake Center
Sat 05:48:23 PM 38.8011 -110.4786 78° East 484 557 37,000  Level Salt Lake Center
Sat 05:49:24 PM 38.8311 -110.2919 78° East 480 552 37,000  Level Salt Lake Center
Sat 05:49:42 PM 38.8400 -110.2369 78° East 483 556 37,000  Level Denver Center
Sat 05:50:44 PM 38.8636 -110.0753 79° East 483 556 37,000 346 Level Denver Center
Sat 05:51:26 PM 38.8867 -109.9436 77° East 480 552 37,600 808 Climbing Salt Lake Center
Sat 05:52:28 PM 38.9111 -109.7842 79° East 477 549 38,400 741 Climbing Salt Lake Center
Sat 05:52:47 PM 38.9181 -109.7283 81° East 478 550 38,600 444 Climbing Denver Center
Sat 05:53:49 PM 38.9469 -109.5367 79° East 491 565 39,000 195 Climbing Denver Center
Sat 05:54:50 PM 38.9706 -109.3714 80° East 493 567 39,000  Level Denver Center
Sat 05:55:52 PM 38.9969 -109.2064 78° East 494 568 39,000  Level Denver Center
Sat 05:56:53 PM 39.0256 -109.0169 79° East 489 563 39,000  Level Denver Center
Sat 05:57:55 PM 39.0489 -108.8531 80° East 489 563 39,000  Level Denver Center
Sat 05:58:57 PM 39.0853 -108.6650 76° East 488 562 39,000  Level Denver Center
Sat 05:59:58 PM 39.1192 -108.5058 75° East 484 557 39,000  Level Denver Center
Sat 06:01:00 PM 39.1569 -108.3189 75° East 487 560 39,000  Level Denver Center
Sat 06:02:02 PM 39.1900 -108.1583 75° East 487 560 39,000  Level Denver Center
Sat 06:03:03 PM 39.2278 -107.9714 75° East 486 559 39,000  Level Denver Center
Sat 06:04:05 PM 39.2600 -107.8111 75° East 486 559 39,000  Level Denver Center
Sat 06:05:07 PM 39.2919 -107.6497 76° East 486 559 39,000  Level Denver Center
Sat 06:06:08 PM 39.3303 -107.4625 75° East 484 557 39,000  Level Denver Center
Sat 06:07:10 PM 39.3614 -107.3006 76° East 487 560 39,000  Level Denver Center
Sat 06:08:23 PM 39.3681 -107.1033 87° East 496 571 39,000  Level Denver Center
Sat 06:09:25 PM 39.3619 -106.9050 92° East 490 564 39,000  Level Denver Center
Sat 06:10:27 PM 39.3567 -106.7067 92° East 494 568 39,000  Level Denver Center
Sat 06:11:28 PM 39.3486 -106.5350 93° East 499 574 39,000  Level Denver Center
Sat 06:12:30 PM 39.3408 -106.3342 93° East 500 575 39,000  Level Denver Center
Sat 06:13:32 PM 39.3333 -106.1467 93° East 499 574 39,000  Level Denver Center
Sat 06:14:33 PM 39.3258 -105.9656 93° East 500 575 39,000  Level Denver Center
Sat 06:15:35 PM 39.3181 -105.7853 93° East 499 574 39,000  Level Denver Center
Sat 06:16:36 PM 39.3111 -105.6053 93° East 497 572 39,000  Level Denver Center
Sat 06:17:38 PM 39.3028 -105.4242 93° East 503 579 39,000  Level Denver Center
Sat 06:18:40 PM 39.2944 -105.2464 93° East 493 567 39,000  Level Denver Center
Sat 06:19:41 PM 39.2850 -105.0653 94° East 503 579 39,000  Level Denver Center
Sat 06:20:43 PM 39.2758 -104.8878 94° East 497 572 39,000  Level Denver Center
Sat 06:21:44 PM 39.2650 -104.6789 94° East 500 575 39,000  Level Denver Center
Sat 06:22:46 PM 39.2550 -104.5008 94° East 498 573 39,000  Level Denver Center
Sat 06:23:48 PM 39.2458 -104.3219 94° East 498 573 39,000  Level Denver Center
Sat 06:24:49 PM 39.2353 -104.1431 94° East 500 575 39,000  Level Denver Center
Sat 06:25:51 PM 39.2261 -103.9664 94° East 493 567 39,000 -176 Level Denver Center
Sat 06:27:05 PM 39.2136 -103.7583 94° East 495 570 38,600 -622 Descending Denver Center
Sat 06:28:06 PM 39.2031 -103.5800 94° East 496 571 37,600 -780 Descending Denver Center
Sat 06:29:08 PM 39.1883 -103.3753 95° East 487 560 37,000 -293 Descending Denver Center
Sat 06:30:09 PM 39.1775 -103.2008 95° East 486 559 37,000  Level Denver Center
Sat 06:31:11 PM 39.1667 -103.0247 94° East 489 563 37,000  Level Denver Center
Sat 06:32:13 PM 39.1533 -102.8500 96° East 487 560 37,000  Level Denver Center
Sat 06:33:14 PM 39.1411 -102.6644 95° East 488 562 37,000  Level Denver Center
Sat 06:34:16 PM 39.1283 -102.4969 96° East 490 564 37,000  Level Denver Center
Sat 06:35:17 PM 39.1167 -102.3286 95° East 491 565 37,000  Level Denver Center
Sat 06:36:19 PM 39.1025 -102.1344 95° East 490 564 37,000  Level Denver Center
Sat 06:37:20 PM 39.0894 -101.9650 96° East 493 567 37,000  Level Denver Center
Sat 06:38:22 PM 39.0742 -101.7689 96° East 494 568 37,000  Level Denver Center
Sat 06:39:23 PM 39.0614 -101.6042 96° East 497 572 37,000  Level Denver Center
Sat 06:40:25 PM 39.0475 -101.4106 95° East 490 564 37,000  Level Denver Center
Sat 06:41:27 PM 39.0331 -101.2425 96° East 494 568 37,000  Level Denver Center
Sat 06:42:28 PM 39.0175 -101.0683 97° East 495 570 37,000  Level Denver Center
Sat 06:43:42 PM 39.0003 -100.8736 96° East 492 566 37,000  Level Denver Center
Sat 06:44:43 PM 38.9831 -100.6783 96° East 492 566 37,000  Level Denver Center
Sat 06:45:45 PM 38.9672 -100.4847 96° East 489 563 37,000  Level Denver Center
Sat 06:46:46 PM 38.9517 -100.3169 97° East 491 565 37,000  Level Denver Center
Sat 06:47:48 PM 38.9339 -100.1242 97° East 488 562 37,000  Level Denver Center
Sat 06:48:49 PM 38.9186 -99.9564 97° East 491 565 37,000  Level Denver Center
Sat 06:49:51 PM 38.9036 -99.7911 97° East 490 564 37,000  Level Denver Center
Sat 06:50:52 PM 38.8850 -99.5983 97° East 487 560 37,000  Level Denver Center
Sat 06:51:54 PM 38.8683 -99.4333 97° East 489 563 37,000  Level Denver Center
Sat 06:52:46 PM 38.8531 -99.2944 98° East 486 559 37,000  Level Kansas City Center
Sat 06:53:48 PM 38.8378 -99.1189 96° East 495 570 37,000  Level Kansas City Center
Sat 06:54:50 PM 38.8194 -98.9469 98° East 487 560 37,000  Level Kansas City Center
Sat 06:55:52 PM 38.7967 -98.7383 98° East 492 566 37,000  Level Kansas City Center
Sat 06:56:54 PM 38.7783 -98.5639 98° East 493 567 37,000  Level Kansas City Center
Sat 06:57:55 PM 38.7597 -98.3886 98° East 496 571 37,000  Level Kansas City Center
Sat 06:58:55 PM 38.7417 -98.2131 97° East 496 571 37,000  Level Kansas City Center
Sat 06:59:58 PM 38.7225 -98.0369 98° East 498 573 37,000  Level Kansas City Center
Sat 07:00:58 PM 38.7033 -97.8600 98° East 499 574 37,000  Level Kansas City Center
Sat 07:01:59 PM 38.6819 -97.6844 99° East 498 573 37,000  Level Kansas City Center
Sat 07:03:03 PM 38.6625 -97.5094 98° East 497 572 37,000  Level Kansas City Center
Sat 07:04:05 PM 38.6411 -97.3356 99° East 493 567 37,000  Level Kansas City Center
Sat 07:05:05 PM 38.6383 -97.1597 91° East 496 571 37,000  Level Kansas City Center
Sat 07:06:06 PM 38.6458 -96.9503 87° East 492 566 37,000  Level Kansas City Center
Sat 07:07:09 PM 38.6511 -96.7869 88° East 493 567 37,000  Level Kansas City Center
Sat 07:08:11 PM 38.6567 -96.5922 88° East 491 565 37,000  Level Kansas City Center
Sat 07:09:12 PM 38.6606 -96.4253 88° East 492 566 37,000  Level Kansas City Center
Sat 07:10:12 PM 38.6653 -96.2589 88° East 491 565 37,000  Level Kansas City Center
Sat 07:11:16 PM 38.6694 -96.0619 88° East 496 571 37,000  Level Kansas City Center
Sat 07:12:17 PM 38.6728 -95.8931 88° East 498 573 37,000  Level Kansas City Center
Sat 07:13:17 PM 38.6781 -95.6981 88° East 495 570 37,000  Level Kansas City Center
Sat 07:14:21 PM 38.6811 -95.5300 89° East 497 572 37,000  Level Kansas City Center
Sat 07:15:22 PM 38.6861 -95.3344 88° East 497 572 37,000  Level Kansas City Center
Sat 07:16:22 PM 38.6883 -95.1658 89° East 497 572 37,000  Level Kansas City Center
Sat 07:17:23 PM 38.6906 -94.9706 89° East 494 568 37,000  Level Kansas City Center
Sat 07:18:26 PM 38.6931 -94.8011 89° East 499 574 37,000  Level Kansas City Center
Sat 07:19:27 PM 38.6950 -94.6036 89° East 499 574 37,000  Level Kansas City Center
Sat 07:20:30 PM 38.6967 -94.4356 89° East 497 572 37,000  Level Kansas City Center
Sat 07:21:31 PM 38.6981 -94.2656 89° East 499 574 37,000  Level Kansas City Center
Sat 07:22:32 PM 38.6989 -94.0681 90° East 497 572 37,000  Level Kansas City Center
Sat 07:23:33 PM 38.6992 -93.8986 90° East 499 574 37,000  Level Kansas City Center
Sat 07:24:36 PM 38.7019 -93.7072 89° East 501 577 37,000  Level Kansas City Center
Sat 07:25:37 PM 38.7025 -93.5292 90° East 500 575 37,000  Level Kansas City Center
Sat 07:26:37 PM 38.7028 -93.3494 90° East 502 578 37,000  Level Kansas City Center
Sat 07:27:41 PM 38.7031 -93.1686 90° East 505 581 37,000  Level Kansas City Center
Sat 07:28:41 PM 38.7019 -92.9883 90° East 505 581 37,000  Level Kansas City Center
Sat 07:29:42 PM 38.7014 -92.8081 90° East 504 580 37,000  Level Kansas City Center
Sat 07:30:43 PM 38.7000 -92.6281 91° East 504 580 37,000 -1,610 Level Kansas City Center
Sat 07:31:45 PM 38.6992 -92.4156 90° East 497 572 33,700 -3,168 Descending Kansas City Center
Sat 07:32:48 PM 38.6978 -92.2353 91° East 500 575 30,400 -2,855 Descending Kansas City Center
Sat 07:33:49 PM 38.6947 -92.0586 91° East 495 570 27,800 -2,529 Descending Kansas City Center
Sat 07:34:49 PM 38.6942 -91.8911 90° East 476 548 25,300 -2,410 Descending Kansas City Center
Sat 07:35:51 PM 38.6908 -91.7306 91° East 456 525 22,900 -2,359 Descending Kansas City Center
Sat 07:36:46 PM 38.6944 -91.5300 89° East 424 488 20,700 -2,240 Descending FAA TRACON SMA TRACON (SMA)
Sat 07:37:06 PM 38.6947 -91.4847 90° East 416 479 20,100 -1,950 Descending FAA TRACON SMA TRACON (SMA)
Sat 07:37:26 PM 38.6942 -91.4394 91° East 412 474 19,400 -2,250 Descending FAA TRACON SMA TRACON (SMA)
Sat 07:37:46 PM 38.6942 -91.3844 90° East 404 465 18,600 -2,100 Descending FAA TRACON SMA TRACON (SMA)
Sat 07:38:06 PM 38.6925 -91.3411 93° East 399 459 18,000 -2,200 Descending FAA TRACON SMA TRACON (SMA)
Sat 07:38:46 PM 38.6933 -91.2436 89° East 395 455 16,400 -2,400 Descending FAA TRACON SMA TRACON (SMA)
Sat 07:39:06 PM 38.6925 -91.2008 91° East 393 452 15,600 -2,100 Descending FAA TRACON SMA TRACON (SMA)
Sat 07:39:26 PM 38.6931 -91.1583 89° East 389 448 15,000 -1,050 Descending FAA TRACON SMA TRACON (SMA)
Sat 07:39:46 PM 38.6925 -91.1075 91° East 376 433 14,900 -150 Descending FAA TRACON SMA TRACON (SMA)
Sat 07:40:06 PM 38.6917 -91.0669 91° East 370 426 14,900  Level FAA TRACON SMA TRACON (SMA)
Sat 07:40:26 PM 38.6922 -91.0267 89° East 368 423 14,900  Level FAA TRACON SMA TRACON (SMA)
Sat 07:40:46 PM 38.6911 -90.9783 92° East 355 409 14,900 -1,050 Level FAA TRACON SMA TRACON (SMA)
Sat 07:41:06 PM 38.6914 -90.9406 89° East 347 399 14,200 -1,950 Descending FAA TRACON SMA TRACON (SMA)
Sat 07:41:26 PM 38.6919 -90.9028 89° East 347 399 13,600 -2,100 Descending FAA TRACON SMA TRACON (SMA)
Sat 07:41:46 PM 38.6944 -90.8561 86° East 345 397 12,800 -2,100 Descending FAA TRACON SMA TRACON (SMA)
Sat 07:42:06 PM 38.6961 -90.8186 87° East 344 396 12,200 -1,950 Descending FAA TRACON SMA TRACON (SMA)
Sat 07:42:26 PM 38.6967 -90.7811 89° East 343 395 11,500 -2,100 Descending FAA TRACON SMA TRACON (SMA)
Sat 07:42:46 PM 38.6983 -90.7344 87° East 343 395 10,800 -1,650 Descending FAA TRACON SMA TRACON (SMA)
Sat 07:43:06 PM 38.7000 -90.6978 87° East 339 390 10,400 -900 Descending FAA TRACON SMA TRACON (SMA)
Sat 07:43:26 PM 38.7017 -90.6622 87° East 329 379 10,200 -900 Descending FAA TRACON SMA TRACON (SMA)
Sat 07:43:46 PM 38.7036 -90.6200 87° East 313 360 9,800 -1,200 Descending FAA TRACON SMA TRACON (SMA)
Sat 07:44:06 PM 38.7044 -90.5867 88° East 305 351 9,400 -1,200 Descending FAA TRACON SMA TRACON (SMA)
Sat 07:44:26 PM 38.7056 -90.5536 88° East 303 349 9,000 -1,350 Descending FAA TRACON SMA TRACON (SMA)
Sat 07:44:46 PM 38.7072 -90.5131 87° East 300 345 8,500 -1,171 Descending FAA TRACON SMA TRACON (SMA)
Sat 07:45:07 PM 38.7086 -90.4811 87° East 293 337 8,200 -1,050 Descending FAA TRACON SMA TRACON (SMA)
Sat 07:45:26 PM 38.7075 -90.4503 93° East 288 331 7,800 -1,231 Descending FAA TRACON SMA TRACON (SMA)
Sat 07:45:46 PM 38.6933 -90.4158 118° Southeast 287 330 7,400 -1,050 Descending FAA TRACON SMA TRACON (SMA)
Sat 07:46:06 PM 38.6808 -90.3897 122° Southeast 279 321 7,100 -1,050 Descending FAA TRACON SMA TRACON (SMA)
Sat 07:46:26 PM 38.6664 -90.3586 121° Southeast 266 306 6,700 -1,350 Descending FAA TRACON SMA TRACON (SMA)
Sat 07:46:46 PM 38.6553 -90.3353 121° Southeast 252 290 6,200 -1,500 Descending FAA TRACON SMA TRACON (SMA)
Sat 07:47:06 PM 38.6444 -90.3128 122° Southeast 244 281 5,700 -1,500 Descending FAA TRACON SMA TRACON (SMA)
Sat 07:47:26 PM 38.6314 -90.2856 122° Southeast 236 272 5,200 -1,350 Descending FAA TRACON SMA TRACON (SMA)
Sat 07:47:46 PM 38.6214 -90.2639 121° Southeast 229 264 4,800 -1,171 Descending FAA TRACON SMA TRACON (SMA)
Sat 07:48:07 PM 38.6111 -90.2428 122° Southeast 226 260 4,400 -1,350 Descending FAA TRACON SMA TRACON (SMA)
Sat 07:48:26 PM 38.6017 -90.2161 114° Southeast 222 255 3,900 -1,231 Descending FAA TRACON SMA TRACON (SMA)
Sat 07:48:46 PM 38.6064 -90.1950 74° East 220 253 3,600 -900 Descending FAA TRACON SMA TRACON (SMA)

Login

Don't have an account? Register now (free) for customized features, flight alerts, and more!